Time;durP1;ratioP1;P1;durP2;ratioP2;P2;SDS_P1;SDS_P2;PMS_P1;PMS_P2;Temp;Humidity;BMP_temperature;BMP_pressure;BME280_temperature;BME280_humidity;BME280_pressure;Samples;Min_cycle;Max_cycle;Signal;HPM_P1;HPM_P2
2023/10/13 00:01:51;;;;;;;9.27;5.07;;;17.00;98.00;;;;;;5054830;28;20523;-68
2023/10/13 00:04:22;;;;;;;15.23;5.40;;;17.00;98.00;;;;;;5054933;28;20456;-67
2023/10/13 00:06:49;;;;;;;12.40;5.97;;;17.00;98.00;;;;;;5054607;28;20480;-68
2023/10/13 00:09:16;;;;;;;10.00;5.60;;;17.00;98.00;;;;;;5054597;28;20909;-67
2023/10/13 00:11:45;;;;;;;11.10;5.73;;;17.10;98.00;;;;;;5053659;28;20464;-68
2023/10/13 00:14:17;;;;;;;13.73;5.10;;;16.90;98.00;;;;;;5053624;28;20450;-70
2023/10/13 00:17:00;;;;;;;12.90;5.83;;;17.00;98.00;;;;;;5054390;28;20885;-67
2023/10/13 00:19:28;;;;;;;9.93;5.47;;;16.90;98.00;;;;;;5054394;28;20449;-67
2023/10/13 00:22:03;;;;;;;9.50;5.20;;;16.90;98.00;;;;;;5054601;28;20457;-68
2023/10/13 00:24:39;;;;;;;12.47;5.47;;;17.00;98.00;;;;;;5054443;28;20445;-67
2023/10/13 00:27:11;;;;;;;10.70;5.10;;;16.90;98.00;;;;;;5054323;28;20449;-68
2023/10/13 00:29:39;;;;;;;11.20;5.57;;;16.80;98.00;;;;;;5054567;28;20797;-68
2023/10/13 00:32:12;;;;;;;9.77;5.60;;;16.90;98.00;;;;;;5054408;28;20561;-69
2023/10/13 00:34:39;;;;;;;12.67;5.50;;;16.70;98.00;;;;;;5054337;28;20516;-68
2023/10/13 00:37:18;;;;;;;12.80;6.20;;;16.70;98.00;;;;;;5054264;28;20534;-68
2023/10/13 00:39:45;;;;;;;9.77;5.50;;;16.60;98.00;;;;;;5054259;28;20449;-69
2023/10/13 00:42:19;;;;;;;9.17;5.30;;;16.60;98.00;;;;;;5054224;28;20472;-68
2023/10/13 00:44:48;;;;;;;10.70;5.40;;;16.50;98.00;;;;;;5054359;28;20805;-70
2023/10/13 00:47:37;;;;;;;11.90;5.93;;;16.60;98.00;;;;;;5054086;28;20551;-68
2023/10/13 00:50:04;;;;;;;10.40;5.07;;;16.50;98.00;;;;;;5053949;28;20568;-68
2023/10/13 00:52:35;;;;;;;11.00;5.63;;;16.40;98.00;;;;;;5054270;28;20465;-68
2023/10/13 00:55:04;;;;;;;9.37;5.27;;;16.40;98.00;;;;;;5053430;28;20458;-68
2023/10/13 00:57:31;;;;;;;11.60;5.80;;;16.40;98.00;;;;;;5053093;28;20959;-68
2023/10/13 01:00:12;;;;;;;11.53;4.87;;;16.20;98.00;;;;;;5053299;28;20971;-67
2023/10/13 01:02:39;;;;;;;11.00;5.67;;;16.20;98.00;;;;;;5052901;28;20499;-67
2023/10/13 01:05:09;;;;;;;10.77;5.87;;;16.20;98.00;;;;;;5053010;28;20454;-67
2023/10/13 01:07:37;;;;;;;10.37;5.53;;;16.20;98.00;;;;;;5053378;28;20474;-69
2023/10/13 01:10:04;;;;;;;8.57;4.80;;;16.30;98.00;;;;;;5053053;28;20724;-68
2023/10/13 01:12:31;;;;;;;10.93;5.60;;;16.30;98.00;;;;;;5052941;28;20527;-68
2023/10/13 01:14:59;;;;;;;14.90;5.13;;;16.10;98.00;;;;;;5053158;28;20485;-67
2023/10/13 01:17:31;;;;;;;10.40;5.13;;;16.10;98.00;;;;;;5052744;28;20453;-68
2023/10/13 01:19:58;;;;;;;9.10;5.10;;;16.10;98.00;;;;;;5053087;28;20956;-69
2023/10/13 01:22:27;;;;;;;12.87;5.80;;;16.00;98.00;;;;;;5052962;28;20548;-67
2023/10/13 01:25:04;;;;;;;9.90;5.43;;;16.10;98.00;;;;;;5052647;28;20454;-68
2023/10/13 01:27:38;;;;;;;9.00;4.67;;;16.10;98.00;;;;;;5052264;28;20458;-67
2023/10/13 01:30:10;;;;;;;12.87;5.63;;;16.00;98.00;;;;;;5052551;28;20454;-67
2023/10/13 01:32:40;;;;;;;10.60;5.57;;;16.00;98.00;;;;;;5052743;28;20461;-68
2023/10/13 01:35:07;;;;;;;10.90;5.50;;;15.90;98.00;;;;;;5052646;28;20453;-67
2023/10/13 01:37:34;;;;;;;12.83;4.90;;;16.00;98.00;;;;;;5052403;28;20488;-67
2023/10/13 01:40:03;;;;;;;16.10;5.50;;;15.90;98.00;;;;;;5052354;28;20450;-68
2023/10/13 01:42:30;;;;;;;12.67;5.30;;;15.90;98.00;;;;;;5051051;28;20552;-67
2023/10/13 01:45:05;;;;;;;9.47;5.23;;;15.80;98.00;;;;;;5052164;28;20453;-68
2023/10/13 01:47:32;;;;;;;12.30;5.07;;;15.70;98.00;;;;;;5052197;28;20457;-67
2023/10/13 01:50:06;;;;;;;14.57;6.10;;;15.60;98.00;;;;;;5052237;28;20533;-68
2023/10/13 01:52:33;;;;;;;10.77;5.00;;;15.60;98.00;;;;;;5052103;28;20458;-68
2023/10/13 01:55:01;;;;;;;10.47;6.00;;;15.70;98.00;;;;;;5051964;28;20454;-67
2023/10/13 01:57:30;;;;;;;11.67;5.23;;;15.60;98.00;;;;;;5051954;28;20456;-68
2023/10/13 01:59:56;;;;;;;9.47;4.77;;;15.70;98.00;;;;;;5051917;28;20468;-68
2023/10/13 02:02:29;;;;;;;14.00;5.20;;;15.70;98.00;;;;;;5050438;28;20549;-66
2023/10/13 02:05:00;;;;;;;12.10;5.47;;;15.70;98.00;;;;;;5051973;28;20454;-67
2023/10/13 02:07:29;;;;;;;8.83;5.10;;;15.50;98.00;;;;;;5051884;28;20736;-68
2023/10/13 02:09:55;;;;;;;10.20;4.83;;;15.40;98.00;;;;;;5050532;28;20496;-68
2023/10/13 02:12:36;;;;;;;13.07;5.50;;;15.40;98.00;;;;;;5051785;28;20499;-68
2023/10/13 02:15:04;;;;;;;10.43;4.90;;;15.40;98.00;;;;;;5051644;28;20533;-68
2023/10/13 02:17:41;;;;;;;11.83;5.00;;;15.30;98.00;;;;;;5051787;28;20457;-67
2023/10/13 02:20:14;;;;;;;12.97;5.03;;;15.20;98.00;;;;;;5051550;28;20884;-67
2023/10/13 02:22:48;;;;;;;9.33;4.73;;;15.10;98.00;;;;;;5051723;28;20887;-67
2023/10/13 02:25:17;;;;;;;13.13;5.00;;;15.00;98.00;;;;;;5051444;28;20966;-67
2023/10/13 02:27:57;;;;;;;10.23;5.03;;;15.10;98.00;;;;;;5051410;28;20964;-67
2023/10/13 02:30:25;;;;;;;9.80;4.60;;;15.00;98.00;;;;;;5050604;28;20540;-69
2023/10/13 02:32:55;;;;;;;9.53;4.93;;;15.00;98.00;;;;;;5051559;28;20458;-67
2023/10/13 02:35:29;;;;;;;10.87;4.83;;;14.90;98.00;;;;;;5050069;28;20465;-68
2023/10/13 02:37:58;;;;;;;19.77;5.60;;;14.90;98.00;;;;;;5051598;28;20449;-69
2023/10/13 02:40:26;;;;;;;12.90;5.70;;;15.00;98.00;;;;;;5050641;28;20442;-68
2023/10/13 02:42:54;;;;;;;13.00;5.87;;;14.90;98.00;;;;;;5051430;28;20880;-67
2023/10/13 02:45:25;;;;;;;13.80;5.30;;;14.80;98.00;;;;;;5051186;28;20496;-67
2023/10/13 02:48:10;;;;;;;12.40;5.13;;;14.80;98.00;;;;;;5051302;28;21035;-68
2023/10/13 02:50:38;;;;;;;9.23;5.00;;;14.80;98.00;;;;;;5051207;28;20482;-68
2023/10/13 02:53:12;;;;;;;9.67;4.47;;;14.80;98.00;;;;;;5051318;28;20453;-66
2023/10/13 02:55:39;;;;;;;9.77;5.03;;;14.80;98.00;;;;;;5051575;28;20466;-66
2023/10/13 02:58:08;;;;;;;9.83;4.27;;;14.90;98.00;;;;;;5051347;28;20559;-68
2023/10/13 03:00:34;;;;;;;10.27;5.20;;;14.80;98.00;;;;;;5051177;28;20811;-68
2023/10/13 03:03:03;;;;;;;9.33;4.33;;;14.80;98.00;;;;;;5050855;28;20489;-68
2023/10/13 03:05:35;;;;;;;12.23;4.93;;;14.60;98.00;;;;;;5051046;28;20473;-67
2023/10/13 03:08:04;;;;;;;10.27;4.90;;;14.50;98.00;;;;;;5051020;28;20485;-67
2023/10/13 03:10:30;;;;;;;10.83;4.70;;;14.50;98.00;;;;;;5050893;28;20446;-67
2023/10/13 03:12:57;;;;;;;8.90;5.03;;;14.50;98.00;;;;;;5050942;28;20494;-68
2023/10/13 03:15:30;;;;;;;12.23;5.30;;;14.70;98.00;;;;;;5049550;28;20450;-68
2023/10/13 03:17:58;;;;;;;12.07;5.10;;;14.50;98.00;;;;;;5051219;28;20466;-69
2023/10/13 03:20:31;;;;;;;10.17;5.27;;;14.60;98.00;;;;;;5050783;28;20864;-67
2023/10/13 03:22:58;;;;;;;10.83;5.00;;;14.40;98.00;;;;;;5051143;28;20462;-68
2023/10/13 03:25:29;;;;;;;13.93;5.17;;;14.40;98.00;;;;;;5050889;28;20450;-68
2023/10/13 03:28:04;;;;;;;9.07;4.43;;;14.20;98.00;;;;;;5050727;28;20465;-68
2023/10/13 03:30:38;;;;;;;13.60;5.90;;;14.30;98.00;;;;;;5050751;28;20449;-68
2023/10/13 03:33:14;;;;;;;10.87;5.10;;;14.20;98.00;;;;;;5050702;28;20452;-68
2023/10/13 03:35:45;;;;;;;10.23;4.73;;;14.40;98.00;;;;;;5050679;28;20540;-67
2023/10/13 03:38:18;;;;;;;9.83;4.73;;;14.30;98.00;;;;;;5050697;28;20532;-68
2023/10/13 03:41:06;;;;;;;8.83;5.53;;;14.40;98.00;;;;;;5050728;28;20465;-68
2023/10/13 03:43:44;;;;;;;9.73;4.90;;;14.50;98.00;;;;;;5050826;28;20457;-67
2023/10/13 03:46:12;;;;;;;11.30;5.10;;;14.40;98.00;;;;;;5050632;28;20528;-67
2023/10/13 03:48:52;;;;;;;11.13;5.37;;;14.40;98.00;;;;;;5050000;28;20488;-67
2023/10/13 03:51:21;;;;;;;10.23;5.30;;;14.40;98.00;;;;;;5052607;28;20468;-66
2023/10/13 03:53:53;;;;;;;14.00;5.53;;;14.20;98.00;;;;;;5053336;28;20483;-67
2023/10/13 03:56:27;;;;;;;10.77;5.30;;;14.20;98.00;;;;;;5054540;28;20474;-68
2023/10/13 03:58:58;;;;;;;8.27;4.40;;;14.20;98.00;;;;;;5054433;28;20955;-68
2023/10/13 04:01:31;;;;;;;12.17;5.20;;;14.10;98.00;;;;;;5054461;28;20472;-67
2023/10/13 04:04:07;;;;;;;10.20;5.33;;;14.10;98.00;;;;;;5054278;28;20490;-66
2023/10/13 04:07:13;;;;;;;9.97;5.17;;;14.10;98.00;;;;;;5052957;28;20867;-67
2023/10/13 04:15:23;;;;;;;12.07;5.23;;;13.90;98.00;;;;;;5027734;28;20461;-67
2023/10/13 04:17:51;;;;;;;9.47;4.80;;;13.80;98.00;;;;;;5053881;28;20476;-67
2023/10/13 04:20:38;;;;;;;12.40;5.87;;;13.80;98.00;;;;;;5053872;28;20462;-68
2023/10/13 04:23:18;;;;;;;9.93;4.70;;;13.90;98.00;;;;;;5053790;28;20453;-68
2023/10/13 04:28:37;;;;;;;8.60;4.43;;;13.90;98.00;;;;;;5053742;28;20484;-67
2023/10/13 04:31:24;;;;;;;8.20;4.80;;;13.80;98.00;;;;;;5053680;28;20503;-68
2023/10/13 04:33:52;;;;;;;9.30;4.73;;;13.80;98.00;;;;;;5053688;28;20532;-67
2023/10/13 04:36:36;;;;;;;11.33;4.53;;;13.80;98.00;;;;;;5053769;28;20461;-68
2023/10/13 04:39:10;;;;;;;12.30;5.43;;;13.90;98.00;;;;;;5053929;28;20536;-67
2023/10/13 04:41:41;;;;;;;9.13;4.70;;;13.90;98.00;;;;;;5053688;28;20554;-67
2023/10/13 04:47:08;;;;;;;17.70;5.27;;;14.00;98.00;;;;;;5053309;28;20532;-67
2023/10/13 04:49:51;;;;;;;10.67;5.13;;;14.00;98.00;;;;;;5053431;28;20478;-67
2023/10/13 04:58:00;;;;;;;12.60;5.27;;;13.60;98.00;;;;;;5053414;28;20448;-68
2023/10/13 05:44:32;;;;;;;11.83;5.47;;;13.70;98.00;;;;;;5053294;28;20580;-68
2023/10/13 05:45:22;;;;;;;8.90;4.67;;;13.00;98.00;;;;;;5052479;28;20869;-68
2023/10/13 05:48:00;;;;;;;9.20;4.73;;;13.00;98.00;;;;;;5052169;28;21048;-67
2023/10/13 05:50:49;;;;;;;10.10;5.20;;;13.20;98.00;;;;;;5052051;28;20495;-68
2023/10/13 06:29:01;;;;;;;8.00;4.23;;;13.50;98.00;;;;;;5020555;28;20872;-63
2023/10/13 06:31:28;;;;;;;11.10;5.50;;;13.50;98.00;;;;;;5051608;28;20450;-63
2023/10/13 06:33:56;;;;;;;10.83;4.97;;;13.70;98.00;;;;;;5051494;28;20453;-63
2023/10/13 06:36:25;;;;;;;16.13;5.80;;;13.70;98.00;;;;;;5051240;28;20463;-63
2023/10/13 06:39:34;;;;;;;12.87;5.63;;;13.80;98.00;;;;;;5051485;28;20485;-63
2023/10/13 06:41:47;;;;;;;11.53;4.77;;;13.90;98.00;;;;;;5051116;28;20456;-62
2023/10/13 06:44:16;;;;;;;16.37;6.90;;;13.80;98.00;;;;;;5042287;28;20832;-63
2023/10/13 06:46:44;;;;;;;10.43;5.20;;;13.80;98.00;;;;;;5031220;28;20464;-63
2023/10/13 06:49:15;;;;;;;11.00;5.03;;;13.90;98.00;;;;;;5031170;28;20489;-63
2023/10/13 06:51:46;;;;;;;11.67;5.20;;;13.80;98.00;;;;;;5044077;28;20467;-63
2023/10/13 06:54:20;;;;;;;12.50;5.23;;;13.90;98.00;;;;;;5049104;28;20545;-63
2023/10/13 06:57:06;;;;;;;13.63;5.80;;;14.00;98.00;;;;;;5050076;28;20460;-63
2023/10/13 06:59:36;;;;;;;10.73;5.63;;;14.10;98.00;;;;;;5050176;28;20460;-63
2023/10/13 07:02:09;;;;;;;16.80;6.13;;;14.30;98.00;;;;;;5049965;28;20538;-63
2023/10/13 07:04:39;;;;;;;13.80;5.93;;;14.40;98.00;;;;;;5049910;28;20932;-63
2023/10/13 07:07:10;;;;;;;13.60;5.07;;;14.50;98.00;;;;;;5049862;28;20457;-63
2023/10/13 07:09:55;;;;;;;9.77;5.00;;;14.50;98.00;;;;;;5051653;28;20892;-63
2023/10/13 07:12:26;;;;;;;11.80;6.03;;;14.60;98.00;;;;;;5051512;28;20462;-63
2023/10/13 07:14:59;;;;;;;13.13;5.80;;;14.80;98.00;;;;;;5051394;28;20963;-63
2023/10/13 07:17:26;;;;;;;13.30;5.43;;;14.90;98.00;;;;;;5051331;28;20905;-63
2023/10/13 07:19:59;;;;;;;12.43;5.93;;;14.90;98.00;;;;;;5051774;28;20457;-63
2023/10/13 07:22:27;;;;;;;14.97;6.10;;;14.90;98.00;;;;;;5051268;28;20454;-63
2023/10/13 07:24:57;;;;;;;11.53;5.43;;;14.90;98.00;;;;;;5051588;28;20544;-63
2023/10/13 07:27:25;;;;;;;11.83;6.13;;;14.90;98.00;;;;;;5055310;28;20450;-63
2023/10/13 07:30:13;;;;;;;10.40;5.13;;;15.00;98.00;;;;;;5054465;28;20478;-63
2023/10/13 07:32:45;;;;;;;8.27;4.83;;;15.00;98.00;;;;;;5055710;28;20445;-63
2023/10/13 07:35:19;;;;;;;12.63;5.03;;;15.10;98.00;;;;;;5055470;28;20453;-63
2023/10/13 07:37:48;;;;;;;8.30;4.97;;;15.10;98.00;;;;;;5055489;28;20453;-63
2023/10/13 07:40:39;;;;;;;13.30;6.20;;;15.10;98.00;;;;;;5055432;28;20800;-63
2023/10/13 07:43:10;;;;;;;13.20;6.30;;;15.10;98.00;;;;;;5055312;28;20453;-63
2023/10/13 07:45:37;;;;;;;9.20;5.60;;;15.30;98.00;;;;;;5055484;28;20540;-63
2023/10/13 07:48:12;;;;;;;14.53;6.37;;;15.40;98.00;;;;;;5055541;28;20959;-63
2023/10/13 07:50:41;;;;;;;12.27;6.20;;;15.60;98.00;;;;;;5055050;28;20565;-63
2023/10/13 07:53:22;;;;;;;19.87;9.43;;;15.80;98.00;;;;;;5055200;28;20446;-63
2023/10/13 07:55:54;;;;;;;14.20;6.70;;;15.90;98.00;;;;;;5054939;28;20447;-63
2023/10/13 07:58:24;;;;;;;12.90;6.23;;;15.90;98.00;;;;;;5054467;28;20815;-63
2023/10/13 08:01:06;;;;;;;14.50;5.73;;;16.10;98.00;;;;;;5054638;28;20827;-63
2023/10/13 08:03:35;;;;;;;9.97;5.00;;;16.20;98.00;;;;;;5054469;28;20461;-63
2023/10/13 08:06:07;;;;;;;16.50;5.57;;;16.40;98.00;;;;;;5054224;28;20532;-63
2023/10/13 08:08:42;;;;;;;16.70;6.03;;;16.60;98.00;;;;;;5054614;28;20445;-63
2023/10/13 08:11:24;;;;;;;12.13;6.10;;;16.70;98.00;;;;;;5052971;28;20485;-63
2023/10/13 08:13:56;;;;;;;16.20;6.60;;;16.80;98.00;;;;;;5052796;28;20504;-63
2023/10/13 08:16:45;;;;;;;11.13;5.53;;;16.90;98.00;;;;;;5054289;28;20458;-63
2023/10/13 08:19:15;;;;;;;16.93;5.30;;;17.00;98.00;;;;;;5054420;28;20511;-64
2023/10/13 08:21:49;;;;;;;9.37;5.23;;;17.10;98.00;;;;;;5053184;28;20473;-63
2023/10/13 08:24:24;;;;;;;12.20;5.30;;;17.20;98.00;;;;;;5054099;28;20529;-63
2023/10/13 08:27:15;;;;;;;19.60;5.83;;;17.40;98.00;;;;;;5054294;28;20457;-63
2023/10/13 08:32:54;;;;;;;11.50;5.33;;;17.60;98.00;;;;;;5047707;28;20449;-64
2023/10/13 08:35:33;;;;;;;11.73;5.80;;;17.70;98.00;;;;;;5053848;28;20935;-65
2023/10/13 08:38:14;;;;;;;12.73;5.90;;;17.90;98.00;;;;;;5053402;28;20515;-64
2023/10/13 08:43:45;;;;;;;13.97;5.03;;;18.20;98.00;;;;;;5054122;28;20976;-65
2023/10/13 08:46:28;;;;;;;17.67;6.17;;;18.30;98.00;;;;;;5054312;28;20545;-65
2023/10/13 08:51:43;;;;;;;12.70;4.83;;;18.60;98.00;;;;;;5011043;28;20966;-66
2023/10/13 08:54:33;;;;;;;11.03;4.47;;;18.80;98.00;;;;;;5013818;28;20444;-67
2023/10/13 08:57:19;;;;;;;9.03;4.63;;;19.20;98.00;;;;;;5014081;28;20820;-67
2023/10/13 08:59:55;;;;;;;20.70;5.30;;;19.50;98.00;;;;;;5013675;28;20946;-67
2023/10/13 09:02:22;;;;;;;8.60;4.60;;;19.80;98.00;;;;;;5012887;28;21006;-63
2023/10/13 09:04:59;;;;;;;11.33;4.40;;;20.10;98.00;;;;;;5013588;28;20456;-63
2023/10/13 09:07:25;;;;;;;9.90;4.90;;;20.40;98.00;;;;;;5012731;28;20459;-63
2023/10/13 09:12:39;;;;;;;8.13;4.40;;;20.80;98.00;;;;;;5012022;28;20482;-66
2023/10/13 09:15:18;;;;;;;10.90;4.80;;;21.10;98.00;;;;;;5013146;28;20477;-66
2023/10/13 09:17:51;;;;;;;12.17;4.80;;;21.30;98.00;;;;;;5013166;28;20463;-64
2023/10/13 09:20:35;;;;;;;11.57;4.93;;;21.30;98.00;;;;;;5012732;28;20451;-63
2023/10/13 09:23:08;;;;;;;10.27;4.43;;;21.50;98.00;;;;;;5013191;28;20456;-63
2023/10/13 09:25:38;;;;;;;6.47;4.13;;;21.60;98.00;;;;;;5012918;28;20483;-63
2023/10/13 09:28:17;;;;;;;8.50;4.27;;;21.60;98.00;;;;;;5013007;28;20474;-64
2023/10/13 09:30:44;;;;;;;6.63;4.10;;;21.70;98.00;;;;;;5012931;28;21040;-63
2023/10/13 09:33:15;;;;;;;8.33;4.60;;;21.90;98.00;;;;;;5012987;28;20803;-64
2023/10/13 09:35:49;;;;;;;9.33;4.80;;;22.00;98.00;;;;;;5013069;28;20490;-63
2023/10/13 09:38:16;;;;;;;8.00;4.40;;;22.30;98.00;;;;;;5012868;28;20493;-63
2023/10/13 09:40:49;;;;;;;9.70;4.73;;;22.50;98.00;;;;;;5012438;28;20452;-63
2023/10/13 09:43:19;;;;;;;7.80;4.13;;;22.60;98.00;;;;;;5012801;28;20456;-64
2023/10/13 09:46:01;;;;;;;10.10;4.20;;;22.80;98.00;;;;;;5012867;28;20465;-63
2023/10/13 09:48:34;;;;;;;9.50;4.57;;;22.90;98.00;;;;;;5012140;28;20499;-63
2023/10/13 09:51:03;;;;;;;12.17;4.87;;;23.10;98.00;;;;;;5012403;28;20490;-63
2023/10/13 09:53:32;;;;;;;8.90;4.23;;;23.20;98.00;;;;;;5012362;28;20466;-63
2023/10/13 09:56:13;;;;;;;9.73;4.30;;;23.40;98.00;;;;;;5012353;28;20456;-63
2023/10/13 09:58:51;;;;;;;7.10;3.70;;;23.60;98.00;;;;;;5012439;28;20470;-62
2023/10/13 10:01:31;;;;;;;17.90;3.90;;;23.80;95.60;;;;;;5012221;28;20462;-63
2023/10/13 10:04:09;;;;;;;4.90;3.30;;;24.00;93.80;;;;;;5012453;28;20468;-64
2023/10/13 10:06:45;;;;;;;6.73;3.37;;;24.20;92.40;;;;;;5012400;28;20521;-63
2023/10/13 10:09:12;;;;;;;8.80;3.37;;;24.50;87.80;;;;;;5012116;28;20464;-64
2023/10/13 10:12:04;;;;;;;7.30;3.10;;;24.70;88.60;;;;;;5010994;28;20824;-63
2023/10/13 10:14:56;;;;;;;6.37;2.93;;;24.90;85.30;;;;;;5011231;28;20512;-64
2023/10/13 10:17:29;;;;;;;5.83;2.80;;;25.10;84.10;;;;;;5011936;28;20491;-64
2023/10/13 10:19:59;;;;;;;8.27;3.20;;;25.20;83.30;;;;;;5012214;28;20451;-64
2023/10/13 10:22:33;;;;;;;9.83;3.30;;;25.40;82.40;;;;;;5011423;28;20470;-64
2023/10/13 10:25:01;;;;;;;6.53;3.23;;;25.60;81.70;;;;;;5011003;28;20502;-63
2023/10/13 10:27:31;;;;;;;12.50;3.53;;;25.80;81.60;;;;;;5012369;28;20478;-64
2023/10/13 10:29:59;;;;;;;7.43;3.50;;;26.00;82.80;;;;;;5011174;28;20491;-63
2023/10/13 10:32:36;;;;;;;11.73;3.70;;;26.20;81.30;;;;;;5012054;28;20448;-64
2023/10/13 10:35:09;;;;;;;8.33;3.40;;;26.50;81.60;;;;;;5012308;28;20451;-63
2023/10/13 10:37:37;;;;;;;8.23;3.23;;;26.50;78.10;;;;;;5012134;28;20458;-63
2023/10/13 10:40:09;;;;;;;7.83;3.20;;;26.70;78.60;;;;;;5012417;28;20483;-63
2023/10/13 10:42:40;;;;;;;8.87;3.60;;;27.00;78.70;;;;;;5012427;28;20513;-64
2023/10/13 10:45:11;;;;;;;6.00;3.10;;;27.20;78.30;;;;;;5012367;28;20506;-64
2023/10/13 10:47:48;;;;;;;5.87;3.07;;;27.40;76.90;;;;;;5012281;28;20459;-64
2023/10/13 10:50:34;;;;;;;9.70;3.87;;;27.70;75.80;;;;;;5011970;28;20464;-64
2023/10/13 10:53:02;;;;;;;6.87;3.47;;;27.80;74.60;;;;;;5012256;28;20447;-64
2023/10/13 10:55:30;;;;;;;9.13;3.73;;;28.00;73.80;;;;;;5012310;28;20463;-64
2023/10/13 10:58:04;;;;;;;5.80;3.40;;;28.30;74.10;;;;;;5012297;28;20463;-64
2023/10/13 11:00:41;;;;;;;6.60;3.57;;;28.60;72.80;;;;;;5011151;28;20515;-64
2023/10/13 11:03:11;;;;;;;8.33;3.30;;;28.90;73.20;;;;;;5012392;28;20545;-64
2023/10/13 11:05:45;;;;;;;6.83;3.77;;;29.10;73.00;;;;;;5012039;28;20448;-64
2023/10/13 11:08:31;;;;;;;6.77;3.83;;;29.20;71.70;;;;;;5011202;28;20542;-64
2023/10/13 11:11:01;;;;;;;6.57;3.07;;;29.50;72.70;;;;;;5011892;28;20483;-62
2023/10/13 11:13:50;;;;;;;6.03;3.33;;;29.80;73.10;;;;;;5012033;28;20447;-64
2023/10/13 11:16:24;;;;;;;10.23;3.27;;;30.00;72.70;;;;;;5011869;28;20447;-64
2023/10/13 11:19:01;;;;;;;15.73;3.60;;;30.00;70.90;;;;;;5011571;28;20614;-64
2023/10/13 11:21:31;;;;;;;8.00;3.43;;;29.80;72.50;;;;;;5011730;28;20925;-64
2023/10/13 11:24:08;;;;;;;6.70;3.10;;;29.60;73.20;;;;;;5011770;28;20509;-64
2023/10/13 11:26:40;;;;;;;8.00;3.33;;;29.50;71.80;;;;;;5011004;28;20508;-62
2023/10/13 11:29:10;;;;;;;7.50;3.47;;;29.20;71.90;;;;;;5010915;28;20455;-63
2023/10/13 11:31:38;;;;;;;6.30;3.60;;;29.20;73.10;;;;;;5010826;28;20993;-63
2023/10/13 11:34:06;;;;;;;10.70;3.47;;;29.10;73.30;;;;;;5010811;28;20447;-63
2023/10/13 11:36:34;;;;;;;6.17;3.40;;;29.00;72.90;;;;;;5010951;28;20873;-64
2023/10/13 11:39:02;;;;;;;6.50;3.17;;;29.30;73.10;;;;;;5010998;28;20942;-62
2023/10/13 11:41:33;;;;;;;11.30;3.77;;;29.80;73.30;;;;;;5010699;28;20462;-62
2023/10/13 11:44:13;;;;;;;7.97;3.93;;;29.90;71.10;;;;;;5009690;28;20768;-62
2023/10/13 11:46:56;;;;;;;10.93;3.67;;;29.80;71.50;;;;;;5009776;28;20455;-62
2023/10/13 11:49:36;;;;;;;6.60;3.63;;;29.90;72.40;;;;;;5010710;28;20878;-62
2023/10/13 11:54:46;;;;;;;5.80;3.40;;;30.10;71.90;;;;;;5008868;28;20529;-65
2023/10/13 11:57:16;;;;;;;6.70;3.80;;;30.30;71.40;;;;;;5010820;28;20558;-67
2023/10/13 11:59:55;;;;;;;7.30;3.37;;;30.60;69.40;;;;;;5010978;28;20866;-66
2023/10/13 12:05:17;;;;;;;5.97;3.30;;;31.10;68.30;;;;;;5010826;28;21000;-66
2023/10/13 12:07:49;;;;;;;6.07;3.00;;;31.40;67.80;;;;;;5010412;28;20494;-67
2023/10/13 12:10:32;;;;;;;7.33;3.00;;;31.60;67.00;;;;;;5010664;28;20519;-66
2023/10/13 12:13:05;;;;;;;6.30;3.70;;;31.70;65.10;;;;;;5013516;28;20447;-66
2023/10/13 12:15:48;;;;;;;7.40;3.03;;;31.70;62.90;;;;;;5014303;28;20462;-66
2023/10/13 12:18:19;;;;;;;5.00;3.17;;;31.70;64.80;;;;;;5014236;28;20976;-65
2023/10/13 12:20:46;;;;;;;10.47;3.27;;;31.90;63.40;;;;;;5014112;28;20451;-66
2023/10/13 12:23:17;;;;;;;3.80;2.93;;;32.00;63.70;;;;;;5014210;28;20525;-66
2023/10/13 12:26:00;;;;;;;6.67;3.60;;;32.10;64.40;;;;;;5013304;28;20454;-66
2023/10/13 12:28:28;;;;;;;4.90;3.20;;;32.00;63.00;;;;;;5014241;28;20855;-66
2023/10/13 12:30:58;;;;;;;5.23;3.10;;;32.20;63.30;;;;;;5014131;28;20574;-66
2023/10/13 12:33:36;;;;;;;6.20;3.33;;;32.30;62.60;;;;;;5014115;28;20459;-66
2023/10/13 12:36:06;;;;;;;6.77;3.33;;;32.30;62.30;;;;;;5012838;28;20539;-66
2023/10/13 12:48:55;;;;;;;7.13;3.53;;;32.40;62.90;;;;;;5014233;28;20505;-65
2023/10/13 12:50:05;;;;;;;7.70;3.33;;;32.30;61.60;;;;;;5013764;28;20622;-68
2023/10/13 12:52:32;;;;;;;4.77;2.90;;;32.10;62.70;;;;;;5013901;28;20491;-67
2023/10/13 12:55:09;;;;;;;6.43;3.23;;;32.00;63.80;;;;;;5013828;28;20497;-67
2023/10/13 12:57:42;;;;;;;8.80;3.43;;;32.10;62.20;;;;;;5013732;28;20813;-67
2023/10/13 13:00:32;;;;;;;5.50;3.07;;;32.00;62.50;;;;;;5013609;28;20535;-66
2023/10/13 13:03:00;;;;;;;6.80;3.30;;;32.10;61.90;;;;;;5013392;28;20444;-66
2023/10/13 13:05:31;;;;;;;9.20;3.10;;;32.30;61.20;;;;;;5013439;28;20465;-65
2023/10/13 13:07:58;;;;;;;6.03;3.67;;;32.20;61.80;;;;;;5013396;28;20862;-67
2023/10/13 13:10:34;;;;;;;4.27;3.00;;;32.30;62.40;;;;;;5013351;28;20901;-66
2023/10/13 13:13:05;;;;;;;7.73;3.63;;;32.40;61.60;;;;;;5013221;28;20463;-66
2023/10/13 13:15:32;;;;;;;5.90;3.40;;;32.60;61.50;;;;;;5012151;28;20839;-66
2023/10/13 13:18:09;;;;;;;6.80;3.97;;;32.60;61.10;;;;;;5013263;28;20831;-66
2023/10/13 13:20:52;;;;;;;10.07;3.13;;;32.50;61.90;;;;;;5012096;28;20460;-65
2023/10/13 13:23:19;;;;;;;5.33;3.37;;;32.40;61.80;;;;;;5012555;28;20823;-65
2023/10/13 13:25:46;;;;;;;7.50;3.27;;;32.20;61.80;;;;;;5012856;28;20448;-66
2023/10/13 13:28:18;;;;;;;5.17;3.10;;;32.00;63.00;;;;;;5012984;28;20969;-66
2023/10/13 13:30:47;;;;;;;4.43;3.17;;;32.00;65.00;;;;;;5012776;28;20483;-65
2023/10/13 13:33:23;;;;;;;6.13;3.70;;;32.10;64.50;;;;;;5012874;28;20539;-65
2023/10/13 13:35:54;;;;;;;6.80;3.50;;;32.10;64.70;;;;;;5012968;28;20554;-65
2023/10/13 13:38:27;;;;;;;9.73;3.63;;;31.90;63.40;;;;;;5012961;28;20491;-67
2023/10/13 13:40:55;;;;;;;6.67;3.90;;;31.80;62.90;;;;;;5012747;28;20459;-67
2023/10/13 13:43:38;;;;;;;8.13;4.60;;;31.70;63.90;;;;;;5012653;28;20483;-67
2023/10/13 13:46:09;;;;;;;6.37;3.70;;;31.70;63.90;;;;;;5012457;28;20498;-68
2023/10/13 13:48:36;;;;;;;6.77;3.00;;;31.60;64.00;;;;;;5012541;28;20463;-66
2023/10/13 13:51:14;;;;;;;7.87;3.77;;;31.70;65.00;;;;;;5011715;28;20488;-67
2023/10/13 13:53:45;;;;;;;9.63;3.80;;;31.70;64.00;;;;;;5012297;28;20463;-68
2023/10/13 13:56:15;;;;;;;6.47;3.20;;;31.90;63.40;;;;;;5012156;28;20455;-67
2023/10/13 13:58:43;;;;;;;13.23;3.63;;;32.00;63.00;;;;;;5012405;28;20452;-67
2023/10/13 14:01:21;;;;;;;6.50;3.50;;;32.20;62.60;;;;;;5012933;28;20451;-66
2023/10/13 14:03:50;;;;;;;4.60;3.43;;;32.40;63.50;;;;;;5012128;28;20877;-67
2023/10/13 14:06:21;;;;;;;7.37;3.80;;;32.60;63.60;;;;;;5013071;28;20444;-67
2023/10/13 14:08:50;;;;;;;10.33;3.40;;;32.70;63.70;;;;;;5013193;28;20474;-67
2023/10/13 14:14:11;;;;;;;6.30;3.30;;;33.00;63.70;;;;;;5012651;28;20518;-67
2023/10/13 14:16:44;;;;;;;5.40;3.40;;;33.00;63.40;;;;;;5013077;28;20460;-67
2023/10/13 14:19:11;;;;;;;6.90;3.30;;;33.10;63.40;;;;;;5012554;28;20551;-67
2023/10/13 14:21:40;;;;;;;6.20;3.40;;;33.00;63.30;;;;;;5011618;28;20831;-67
2023/10/13 14:24:14;;;;;;;6.03;3.30;;;33.00;62.50;;;;;;5012968;28;20448;-67
2023/10/13 14:26:43;;;;;;;3.90;3.17;;;32.80;62.70;;;;;;5013206;28;20456;-68
2023/10/13 14:29:14;;;;;;;8.07;3.47;;;32.90;62.50;;;;;;5012788;28;20486;-65
2023/10/13 14:31:41;;;;;;;8.53;3.50;;;32.80;61.60;;;;;;5012555;28;20491;-68
2023/10/13 14:34:08;;;;;;;7.90;3.90;;;32.50;62.80;;;;;;5012595;28;20451;-68
2023/10/13 14:36:36;;;;;;;6.47;3.57;;;32.70;63.20;;;;;;5012196;28;20494;-68
2023/10/13 14:39:08;;;;;;;5.40;3.13;;;33.00;62.70;;;;;;5012384;28;20454;-68
2023/10/13 14:41:36;;;;;;;5.50;3.80;;;33.20;61.90;;;;;;5012409;28;20460;-68
2023/10/13 14:44:06;;;;;;;6.10;3.40;;;33.30;59.30;;;;;;5011452;28;20451;-67
2023/10/13 14:46:39;;;;;;;6.03;3.37;;;33.20;58.70;;;;;;5012150;28;20459;-67
2023/10/13 14:49:06;;;;;;;9.10;3.20;;;33.30;59.20;;;;;;5011804;28;20447;-68
2023/10/13 14:51:39;;;;;;;4.70;3.10;;;33.20;58.50;;;;;;5011100;28;20487;-66
2023/10/13 14:54:07;;;;;;;6.00;3.30;;;33.10;58.60;;;;;;5010890;28;20459;-61
2023/10/13 14:56:34;;;;;;;7.27;3.40;;;33.10;58.40;;;;;;5010713;28;20456;-65
2023/10/13 14:59:04;;;;;;;6.77;3.50;;;33.00;58.10;;;;;;5010945;28;20464;-66
2023/10/13 15:01:31;;;;;;;6.73;3.23;;;32.90;58.70;;;;;;5011143;28;20463;-67
2023/10/13 15:03:58;;;;;;;5.57;2.97;;;33.00;59.30;;;;;;5012146;28;21014;-59
2023/10/13 15:06:28;;;;;;;6.80;3.23;;;33.20;58.90;;;;;;5011958;28;20498;-66
2023/10/13 15:08:57;;;;;;;6.30;2.77;;;33.50;59.30;;;;;;5012224;28;20525;-67
2023/10/13 15:11:28;;;;;;;11.30;3.37;;;33.80;60.60;;;;;;5011953;28;20475;-68
2023/10/13 15:13:56;;;;;;;7.93;3.53;;;34.00;60.50;;;;;;5012162;28;20460;-66
2023/10/13 15:16:26;;;;;;;11.40;3.27;;;34.20;58.70;;;;;;5011977;28;20492;-69